MET'MAP v2.0
soon released !

Expected late october,
this new version will be
more efficient, smarter,
and hosted on a brand new
server x3 powerfull...
...and still free !


Not compatible ?
Try the mobile version !

LOG IN : | Subscribe | Disclaimer | Who is Orbifly ? |
ICAO code :

TAF - LGIR Nikos Kazantzakis - 02 Jun 2020 08:05 UTC - Data Source NOAA   


- Airport Elevation : 115 ft
- IATA code : HER
- No reported NOTAMs.


LGIR - Nikos Kazantzakis

Latest METAR recorded : 2015/08/11 07:50 LGIR 110750Z 34006KT CAVOK 29/21 Q1011 NOSIG
TAF TAF LGIR
Valid from the 02 at 06:00 until the 03 at 06:00 UTC


020500Z 0206/0306 31006KT 9999 SCT020 SCT080
PROB40
TEMPO 0206/0217 5000 RA FEW015TCU BKN020
PROB30
TEMPO 0206/0215 3000 TSRA SCT010 FEW018CB BKN020

Source NOAA


MET'MAP, your aeronautical weather chart ! - Copyright ORBIFLY December 2007

Programming & Development : Alexandra Zaïnal
Co-Developer : Marc-Olivier Méhu
Technical & hardware support : Manuel Goepfert
Concept & Financing : Baudouin d'Aumeries